sensor_id;sensor_type;location;lat;lon;timestamp;temperature;humidity
69189;DHT22;56302;52.322;5.926;2023-04-03T00:01:31;2.60;77.10
69189;DHT22;56302;52.322;5.926;2023-04-03T00:03:57;2.60;77.40
69189;DHT22;56302;52.322;5.926;2023-04-03T00:06:23;2.50;77.60
69189;DHT22;56302;52.322;5.926;2023-04-03T00:08:49;2.50;77.50
69189;DHT22;56302;52.322;5.926;2023-04-03T00:11:15;2.50;77.80
69189;DHT22;56302;52.322;5.926;2023-04-03T00:13:41;2.50;77.80
69189;DHT22;56302;52.322;5.926;2023-04-03T00:16:09;2.40;78.10
69189;DHT22;56302;52.322;5.926;2023-04-03T00:18:35;2.40;77.90
69189;DHT22;56302;52.322;5.926;2023-04-03T00:21:00;2.40;78.30
69189;DHT22;56302;52.322;5.926;2023-04-03T00:23:26;2.30;78.80
69189;DHT22;56302;52.322;5.926;2023-04-03T00:25:52;2.30;78.80
69189;DHT22;56302;52.322;5.926;2023-04-03T00:28:17;2.20;78.90
69189;DHT22;56302;52.322;5.926;2023-04-03T00:30:43;2.30;78.80
69189;DHT22;56302;52.322;5.926;2023-04-03T00:33:12;2.30;78.90
69189;DHT22;56302;52.322;5.926;2023-04-03T00:35:38;2.30;79.00
69189;DHT22;56302;52.322;5.926;2023-04-03T00:38:04;2.30;79.00
69189;DHT22;56302;52.322;5.926;2023-04-03T00:40:34;2.30;78.90
69189;DHT22;56302;52.322;5.926;2023-04-03T00:43:00;2.30;78.80
69189;DHT22;56302;52.322;5.926;2023-04-03T00:45:35;2.20;78.90
69189;DHT22;56302;52.322;5.926;2023-04-03T00:48:04;2.20;79.30
69189;DHT22;56302;52.322;5.926;2023-04-03T00:50:33;2.10;79.50
69189;DHT22;56302;52.322;5.926;2023-04-03T00:52:59;2.10;79.70
69189;DHT22;56302;52.322;5.926;2023-04-03T00:55:25;2.10;79.60
69189;DHT22;56302;52.322;5.926;2023-04-03T00:57:52;2.10;79.70
69189;DHT22;56302;52.322;5.926;2023-04-03T01:00:19;2.00;80.20
69189;DHT22;56302;52.322;5.926;2023-04-03T01:02:46;2.00;80.20
69189;DHT22;56302;52.322;5.926;2023-04-03T01:05:12;2.00;80.30
69189;DHT22;56302;52.322;5.926;2023-04-03T01:07:38;2.00;80.50
69189;DHT22;56302;52.322;5.926;2023-04-03T01:10:11;1.90;80.60
69189;DHT22;56302;52.322;5.926;2023-04-03T01:12:40;1.90;80.80
69189;DHT22;56302;52.322;5.926;2023-04-03T01:15:16;1.90;80.90
69189;DHT22;56302;52.322;5.926;2023-04-03T01:17:48;1.80;81.20
69189;DHT22;56302;52.322;5.926;2023-04-03T01:25:40;1.80;81.60
69189;DHT22;56302;52.322;5.926;2023-04-03T01:28:08;1.80;81.70
69189;DHT22;56302;52.322;5.926;2023-04-03T01:30:39;1.70;81.90
69189;DHT22;56302;52.322;5.926;2023-04-03T01:33:06;1.70;81.80
69189;DHT22;56302;52.322;5.926;2023-04-03T01:35:32;1.70;81.90
69189;DHT22;56302;52.322;5.926;2023-04-03T01:37:57;1.60;82.20
69189;DHT22;56302;52.322;5.926;2023-04-03T01:40:23;1.60;82.50
69189;DHT22;56302;52.322;5.926;2023-04-03T01:42:48;1.60;82.60
69189;DHT22;56302;52.322;5.926;2023-04-03T01:45:14;1.60;82.80
69189;DHT22;56302;52.322;5.926;2023-04-03T01:47:40;1.60;82.80
69189;DHT22;56302;52.322;5.926;2023-04-03T01:50:05;1.70;82.60
69189;DHT22;56302;52.322;5.926;2023-04-03T01:52:31;1.60;82.60
69189;DHT22;56302;52.322;5.926;2023-04-03T01:54:56;1.70;82.20
69189;DHT22;56302;52.322;5.926;2023-04-03T01:57:22;1.60;82.70
69189;DHT22;56302;52.322;5.926;2023-04-03T01:59:47;1.60;83.10
69189;DHT22;56302;52.322;5.926;2023-04-03T02:02:13;1.60;83.40
69189;DHT22;56302;52.322;5.926;2023-04-03T02:04:40;1.60;83.30
69189;DHT22;56302;52.322;5.926;2023-04-03T02:07:06;1.60;83.40
69189;DHT22;56302;52.322;5.926;2023-04-03T02:09:31;1.60;83.50
69189;DHT22;56302;52.322;5.926;2023-04-03T02:11:57;1.50;83.50
69189;DHT22;56302;52.322;5.926;2023-04-03T02:14:22;1.60;83.30
69189;DHT22;56302;52.322;5.926;2023-04-03T02:16:49;1.50;83.60
69189;DHT22;56302;52.322;5.926;2023-04-03T02:19:15;1.50;84.20
69189;DHT22;56302;52.322;5.926;2023-04-03T02:21:40;1.50;83.90
69189;DHT22;56302;52.322;5.926;2023-04-03T02:24:06;1.50;83.90
69189;DHT22;56302;52.322;5.926;2023-04-03T02:26:31;1.50;84.00
69189;DHT22;56302;52.322;5.926;2023-04-03T02:28:57;1.50;83.90
69189;DHT22;56302;52.322;5.926;2023-04-03T02:31:22;1.50;84.10
69189;DHT22;56302;52.322;5.926;2023-04-03T02:33:49;1.50;84.40
69189;DHT22;56302;52.322;5.926;2023-04-03T02:36:15;1.40;85.20
69189;DHT22;56302;52.322;5.926;2023-04-03T02:38:41;1.40;85.20
69189;DHT22;56302;52.322;5.926;2023-04-03T02:41:09;1.30;85.70
69189;DHT22;56302;52.322;5.926;2023-04-03T02:43:35;1.30;85.90
69189;DHT22;56302;52.322;5.926;2023-04-03T02:46:00;1.30;85.80
69189;DHT22;56302;52.322;5.926;2023-04-03T02:48:26;1.30;85.70
69189;DHT22;56302;52.322;5.926;2023-04-03T02:50:53;1.30;85.90
69189;DHT22;56302;52.322;5.926;2023-04-03T02:53:18;1.30;86.10
69189;DHT22;56302;52.322;5.926;2023-04-03T02:55:44;1.10;86.50
69189;DHT22;56302;52.322;5.926;2023-04-03T02:58:10;1.20;86.50
69189;DHT22;56302;52.322;5.926;2023-04-03T03:00:36;1.20;86.30
69189;DHT22;56302;52.322;5.926;2023-04-03T03:03:01;1.20;86.70
69189;DHT22;56302;52.322;5.926;2023-04-03T03:05:27;1.20;86.40
69189;DHT22;56302;52.322;5.926;2023-04-03T03:07:53;1.30;86.20
69189;DHT22;56302;52.322;5.926;2023-04-03T03:10:19;1.20;86.30
69189;DHT22;56302;52.322;5.926;2023-04-03T03:12:45;1.20;86.80
69189;DHT22;56302;52.322;5.926;2023-04-03T03:15:11;1.10;86.80
69189;DHT22;56302;52.322;5.926;2023-04-03T03:17:36;1.10;86.90
69189;DHT22;56302;52.322;5.926;2023-04-03T03:20:05;1.00;87.20
69189;DHT22;56302;52.322;5.926;2023-04-03T03:22:32;1.00;87.20
69189;DHT22;56302;52.322;5.926;2023-04-03T03:24:58;1.10;87.30
69189;DHT22;56302;52.322;5.926;2023-04-03T03:27:23;1.00;87.30
69189;DHT22;56302;52.322;5.926;2023-04-03T03:29:49;1.00;87.60
69189;DHT22;56302;52.322;5.926;2023-04-03T03:32:15;0.90;87.80
69189;DHT22;56302;52.322;5.926;2023-04-03T03:34:40;0.70;88.40
69189;DHT22;56302;52.322;5.926;2023-04-03T03:37:06;0.70;88.70
69189;DHT22;56302;52.322;5.926;2023-04-03T03:39:31;0.70;88.70
69189;DHT22;56302;52.322;5.926;2023-04-03T03:41:57;0.70;88.60
69189;DHT22;56302;52.322;5.926;2023-04-03T03:44:22;0.80;88.40
69189;DHT22;56302;52.322;5.926;2023-04-03T03:46:48;0.80;88.30
69189;DHT22;56302;52.322;5.926;2023-04-03T03:49:13;0.90;87.80
69189;DHT22;56302;52.322;5.926;2023-04-03T03:51:40;0.80;88.00
69189;DHT22;56302;52.322;5.926;2023-04-03T03:54:06;0.70;88.00
69189;DHT22;56302;52.322;5.926;2023-04-03T03:56:32;0.80;88.30
69189;DHT22;56302;52.322;5.926;2023-04-03T03:58:58;0.80;88.20
69189;DHT22;56302;52.322;5.926;2023-04-03T04:01:24;0.70;88.30
69189;DHT22;56302;52.322;5.926;2023-04-03T04:03:50;0.70;88.20
69189;DHT22;56302;52.322;5.926;2023-04-03T04:06:16;0.60;88.70
69189;DHT22;56302;52.322;5.926;2023-04-03T04:08:42;0.60;89.00
69189;DHT22;56302;52.322;5.926;2023-04-03T04:11:08;0.60;89.20
69189;DHT22;56302;52.322;5.926;2023-04-03T04:13:34;0.60;89.30
69189;DHT22;56302;52.322;5.926;2023-04-03T04:15:59;0.60;89.20
69189;DHT22;56302;52.322;5.926;2023-04-03T04:18:25;0.60;89.10
69189;DHT22;56302;52.322;5.926;2023-04-03T04:20:51;0.60;89.00
69189;DHT22;56302;52.322;5.926;2023-04-03T04:23:17;0.50;89.20
69189;DHT22;56302;52.322;5.926;2023-04-03T04:25:47;0.50;89.30
69189;DHT22;56302;52.322;5.926;2023-04-03T04:28:13;0.50;89.20
69189;DHT22;56302;52.322;5.926;2023-04-03T04:30:38;0.50;89.50
69189;DHT22;56302;52.322;5.926;2023-04-03T04:33:04;0.50;89.80
69189;DHT22;56302;52.322;5.926;2023-04-03T04:35:30;0.50;89.50
69189;DHT22;56302;52.322;5.926;2023-04-03T04:37:55;0.40;89.40
69189;DHT22;56302;52.322;5.926;2023-04-03T04:40:21;0.30;89.70
69189;DHT22;56302;52.322;5.926;2023-04-03T04:42:47;0.20;90.00
69189;DHT22;56302;52.322;5.926;2023-04-03T04:45:12;0.20;90.00
69189;DHT22;56302;52.322;5.926;2023-04-03T04:47:38;0.30;90.00
69189;DHT22;56302;52.322;5.926;2023-04-03T04:50:04;0.30;89.80
69189;DHT22;56302;52.322;5.926;2023-04-03T04:52:30;0.40;89.30
69189;DHT22;56302;52.322;5.926;2023-04-03T04:54:55;0.40;89.00
69189;DHT22;56302;52.322;5.926;2023-04-03T04:57:21;0.30;89.40
69189;DHT22;56302;52.322;5.926;2023-04-03T04:59:46;0.20;89.70
69189;DHT22;56302;52.322;5.926;2023-04-03T05:02:12;0.20;89.80
69189;DHT22;56302;52.322;5.926;2023-04-03T05:04:37;0.10;89.60
69189;DHT22;56302;52.322;5.926;2023-04-03T05:07:03;0.10;89.80
69189;DHT22;56302;52.322;5.926;2023-04-03T05:09:29;0.00;90.50
69189;DHT22;56302;52.322;5.926;2023-04-03T05:11:54;-0.10;90.60
69189;DHT22;56302;52.322;5.926;2023-04-03T05:14:21;-0.20;91.10
69189;DHT22;56302;52.322;5.926;2023-04-03T05:16:46;-0.20;91.30
69189;DHT22;56302;52.322;5.926;2023-04-03T05:19:12;-0.20;91.30
69189;DHT22;56302;52.322;5.926;2023-04-03T05:21:38;-0.10;91.30
69189;DHT22;56302;52.322;5.926;2023-04-03T05:24:04;0.10;90.50
69189;DHT22;56302;52.322;5.926;2023-04-03T05:26:30;0.30;90.00
69189;DHT22;56302;52.322;5.926;2023-04-03T05:28:57;0.40;89.50
69189;DHT22;56302;52.322;5.926;2023-04-03T05:31:22;0.70;88.20
69189;DHT22;56302;52.322;5.926;2023-04-03T05:33:48;0.80;88.00
69189;DHT22;56302;52.322;5.926;2023-04-03T05:36:14;0.80;87.70
69189;DHT22;56302;52.322;5.926;2023-04-03T05:38:40;0.60;88.30
69189;DHT22;56302;52.322;5.926;2023-04-03T05:41:05;0.70;89.00
69189;DHT22;56302;52.322;5.926;2023-04-03T05:43:31;0.60;89.00
69189;DHT22;56302;52.322;5.926;2023-04-03T05:45:58;0.70;89.20
69189;DHT22;56302;52.322;5.926;2023-04-03T05:48:23;0.70;88.90
69189;DHT22;56302;52.322;5.926;2023-04-03T05:50:49;0.80;89.50
69189;DHT22;56302;52.322;5.926;2023-04-03T05:53:21;1.00;89.30
69189;DHT22;56302;52.322;5.926;2023-04-03T05:55:47;1.10;88.80
69189;DHT22;56302;52.322;5.926;2023-04-03T05:58:13;1.10;88.30
69189;DHT22;56302;52.322;5.926;2023-04-03T06:00:42;1.20;88.10
69189;DHT22;56302;52.322;5.926;2023-04-03T06:03:08;1.10;87.60
69189;DHT22;56302;52.322;5.926;2023-04-03T06:05:33;1.20;88.20
69189;DHT22;56302;52.322;5.926;2023-04-03T06:07:59;1.20;88.20
69189;DHT22;56302;52.322;5.926;2023-04-03T06:10:25;1.20;87.50
69189;DHT22;56302;52.322;5.926;2023-04-03T06:12:51;1.30;87.60
69189;DHT22;56302;52.322;5.926;2023-04-03T06:15:17;1.30;87.20
69189;DHT22;56302;52.322;5.926;2023-04-03T06:17:43;1.40;87.00
69189;DHT22;56302;52.322;5.926;2023-04-03T06:20:09;1.50;86.60
69189;DHT22;56302;52.322;5.926;2023-04-03T06:22:35;1.50;86.40
69189;DHT22;56302;52.322;5.926;2023-04-03T06:25:01;1.60;85.80
69189;DHT22;56302;52.322;5.926;2023-04-03T06:27:26;1.60;85.70
69189;DHT22;56302;52.322;5.926;2023-04-03T06:29:52;1.60;85.40
69189;DHT22;56302;52.322;5.926;2023-04-03T06:32:17;1.60;85.90
69189;DHT22;56302;52.322;5.926;2023-04-03T06:34:43;1.70;85.70
69189;DHT22;56302;52.322;5.926;2023-04-03T06:37:20;1.70;85.10
69189;DHT22;56302;52.322;5.926;2023-04-03T06:39:46;1.80;85.10
69189;DHT22;56302;52.322;5.926;2023-04-03T06:42:12;1.80;83.90
69189;DHT22;56302;52.322;5.926;2023-04-03T06:44:37;1.80;83.50
69189;DHT22;56302;52.322;5.926;2023-04-03T06:47:03;1.90;83.50
69189;DHT22;56302;52.322;5.926;2023-04-03T06:49:29;2.00;82.80
69189;DHT22;56302;52.322;5.926;2023-04-03T06:51:55;2.10;82.90
69189;DHT22;56302;52.322;5.926;2023-04-03T06:54:21;2.30;81.70
69189;DHT22;56302;52.322;5.926;2023-04-03T06:56:47;2.30;82.40
69189;DHT22;56302;52.322;5.926;2023-04-03T06:59:13;2.60;81.40
69189;DHT22;56302;52.322;5.926;2023-04-03T07:01:40;2.60;81.10
69189;DHT22;56302;52.322;5.926;2023-04-03T07:04:06;2.60;80.30
69189;DHT22;56302;52.322;5.926;2023-04-03T07:06:32;2.60;79.90
69189;DHT22;56302;52.322;5.926;2023-04-03T07:08:59;2.80;80.00
69189;DHT22;56302;52.322;5.926;2023-04-03T07:11:24;3.00;78.80
69189;DHT22;56302;52.322;5.926;2023-04-03T07:13:50;3.40;79.60
69189;DHT22;56302;52.322;5.926;2023-04-03T07:16:16;3.70;77.10
69189;DHT22;56302;52.322;5.926;2023-04-03T07:18:41;3.50;76.40
69189;DHT22;56302;52.322;5.926;2023-04-03T07:21:07;3.70;77.00
69189;DHT22;56302;52.322;5.926;2023-04-03T07:23:33;3.80;75.50
69189;DHT22;56302;52.322;5.926;2023-04-03T07:25:59;3.80;75.60
69189;DHT22;56302;52.322;5.926;2023-04-03T07:28:24;4.10;75.20
69189;DHT22;56302;52.322;5.926;2023-04-03T07:31:02;4.30;73.90
69189;DHT22;56302;52.322;5.926;2023-04-03T07:33:28;4.30;74.20
69189;DHT22;56302;52.322;5.926;2023-04-03T07:35:53;4.60;74.50
69189;DHT22;56302;52.322;5.926;2023-04-03T07:38:19;4.70;71.40
69189;DHT22;56302;52.322;5.926;2023-04-03T07:40:47;4.90;71.70
69189;DHT22;56302;52.322;5.926;2023-04-03T07:43:12;5.10;71.30
69189;DHT22;56302;52.322;5.926;2023-04-03T07:45:38;5.10;69.90
69189;DHT22;56302;52.322;5.926;2023-04-03T07:48:04;5.30;71.30
69189;DHT22;56302;52.322;5.926;2023-04-03T07:50:29;5.60;68.00
69189;DHT22;56302;52.322;5.926;2023-04-03T07:52:56;5.60;68.50
69189;DHT22;56302;52.322;5.926;2023-04-03T07:55:23;5.90;67.40
69189;DHT22;56302;52.322;5.926;2023-04-03T07:57:49;6.10;67.90
69189;DHT22;56302;52.322;5.926;2023-04-03T08:00:15;6.30;64.90
69189;DHT22;56302;52.322;5.926;2023-04-03T08:02:43;6.00;65.30
69189;DHT22;56302;52.322;5.926;2023-04-03T08:05:09;5.70;66.80
69189;DHT22;56302;52.322;5.926;2023-04-03T08:07:37;5.70;65.60
69189;DHT22;56302;52.322;5.926;2023-04-03T08:10:03;5.70;65.30
69189;DHT22;56302;52.322;5.926;2023-04-03T08:12:28;5.30;65.80
69189;DHT22;56302;52.322;5.926;2023-04-03T08:14:55;5.70;65.80
69189;DHT22;56302;52.322;5.926;2023-04-03T08:17:21;5.70;64.50
69189;DHT22;56302;52.322;5.926;2023-04-03T08:19:47;5.90;64.30
69189;DHT22;56302;52.322;5.926;2023-04-03T08:22:12;6.00;62.70
69189;DHT22;56302;52.322;5.926;2023-04-03T08:24:38;5.80;60.00
69189;DHT22;56302;52.322;5.926;2023-04-03T08:27:03;6.00;63.00
69189;DHT22;56302;52.322;5.926;2023-04-03T08:29:29;6.20;63.20
69189;DHT22;56302;52.322;5.926;2023-04-03T08:31:55;6.30;59.10
69189;DHT22;56302;52.322;5.926;2023-04-03T08:34:21;6.10;61.90
69189;DHT22;56302;52.322;5.926;2023-04-03T08:36:46;6.00;59.30
69189;DHT22;56302;52.322;5.926;2023-04-03T08:39:12;6.10;59.00
69189;DHT22;56302;52.322;5.926;2023-04-03T08:41:43;6.20;58.00
69189;DHT22;56302;52.322;5.926;2023-04-03T08:49:31;5.80;54.70
69189;DHT22;56302;52.322;5.926;2023-04-03T08:51:59;5.70;53.60
69189;DHT22;56302;52.322;5.926;2023-04-03T08:54:40;5.90;54.20
69189;DHT22;56302;52.322;5.926;2023-04-03T08:57:07;6.00;51.50
69189;DHT22;56302;52.322;5.926;2023-04-03T08:59:34;5.90;48.80
69189;DHT22;56302;52.322;5.926;2023-04-03T09:02:04;6.10;49.80
69189;DHT22;56302;52.322;5.926;2023-04-03T09:04:32;6.10;51.80
69189;DHT22;56302;52.322;5.926;2023-04-03T09:07:12;6.30;53.10
69189;DHT22;56302;52.322;5.926;2023-04-03T09:09:41;6.40;53.10
69189;DHT22;56302;52.322;5.926;2023-04-03T09:14:57;6.70;49.60
69189;DHT22;56302;52.322;5.926;2023-04-03T09:23:39;6.60;45.80
69189;DHT22;56302;52.322;5.926;2023-04-03T09:26:11;6.70;49.80
69189;DHT22;56302;52.322;5.926;2023-04-03T09:28:39;6.80;47.50
69189;DHT22;56302;52.322;5.926;2023-04-03T09:31:29;6.60;46.30
69189;DHT22;56302;52.322;5.926;2023-04-03T09:33:59;6.70;47.50
69189;DHT22;56302;52.322;5.926;2023-04-03T09:39:14;7.10;45.10
69189;DHT22;56302;52.322;5.926;2023-04-03T09:41:40;7.00;43.50
69189;DHT22;56302;52.322;5.926;2023-04-03T09:44:24;7.00;43.20
69189;DHT22;56302;52.322;5.926;2023-04-03T09:46:49;6.90;41.70
69189;DHT22;56302;52.322;5.926;2023-04-03T09:49:15;6.90;42.40
69189;DHT22;56302;52.322;5.926;2023-04-03T09:51:40;6.90;44.50
69189;DHT22;56302;52.322;5.926;2023-04-03T09:54:31;7.10;45.40
69189;DHT22;56302;52.322;5.926;2023-04-03T09:57:01;7.30;44.00
69189;DHT22;56302;52.322;5.926;2023-04-03T09:59:27;7.20;38.60
69189;DHT22;56302;52.322;5.926;2023-04-03T10:02:16;7.40;45.70
69189;DHT22;56302;52.322;5.926;2023-04-03T10:04:46;7.40;41.90
69189;DHT22;56302;52.322;5.926;2023-04-03T10:09:57;7.30;42.90
69189;DHT22;56302;52.322;5.926;2023-04-03T10:12:23;7.20;41.40
69189;DHT22;56302;52.322;5.926;2023-04-03T10:14:59;7.10;41.10
69189;DHT22;56302;52.322;5.926;2023-04-03T10:23:44;7.80;43.60
69189;DHT22;56302;52.322;5.926;2023-04-03T10:28:59;7.70;43.90
69189;DHT22;56302;52.322;5.926;2023-04-03T10:34:27;7.70;41.00
69189;DHT22;56302;52.322;5.926;2023-04-03T10:36:56;7.60;43.40
69189;DHT22;56302;52.322;5.926;2023-04-03T10:39:32;7.60;43.50
69189;DHT22;56302;52.322;5.926;2023-04-03T10:42:56;7.90;42.90
69189;DHT22;56302;52.322;5.926;2023-04-03T10:45:42;7.80;41.20
69189;DHT22;56302;52.322;5.926;2023-04-03T10:48:29;7.60;42.60
69189;DHT22;56302;52.322;5.926;2023-04-03T10:56:31;7.90;43.60
69189;DHT22;56302;52.322;5.926;2023-04-03T10:59:14;7.80;42.40
69189;DHT22;56302;52.322;5.926;2023-04-03T11:01:43;7.90;43.10
69189;DHT22;56302;52.322;5.926;2023-04-03T11:04:11;7.90;44.30
69189;DHT22;56302;52.322;5.926;2023-04-03T11:09:37;8.00;43.80
69189;DHT22;56302;52.322;5.926;2023-04-03T11:12:12;7.90;43.90
69189;DHT22;56302;52.322;5.926;2023-04-03T11:14:40;7.90;42.30
69189;DHT22;56302;52.322;5.926;2023-04-03T11:22:42;8.00;40.90
69189;DHT22;56302;52.322;5.926;2023-04-03T11:28:00;8.00;43.00
69189;DHT22;56302;52.322;5.926;2023-04-03T11:35:32;8.10;41.50
69189;DHT22;56302;52.322;5.926;2023-04-03T11:38:00;8.30;43.80
69189;DHT22;56302;52.322;5.926;2023-04-03T11:40:35;8.30;43.20
69189;DHT22;56302;52.322;5.926;2023-04-03T11:43:21;8.30;42.50
69189;DHT22;56302;52.322;5.926;2023-04-03T11:46:04;8.30;40.90
69189;DHT22;56302;52.322;5.926;2023-04-03T11:53:35;8.60;41.20
69189;DHT22;56302;52.322;5.926;2023-04-03T11:56:03;8.60;43.50
69189;DHT22;56302;52.322;5.926;2023-04-03T11:58:33;8.60;42.40
69189;DHT22;56302;52.322;5.926;2023-04-03T12:01:10;8.80;44.50
69189;DHT22;56302;52.322;5.926;2023-04-03T12:13:34;8.80;42.80
69189;DHT22;56302;52.322;5.926;2023-04-03T12:16:00;8.80;42.00
69189;DHT22;56302;52.322;5.926;2023-04-03T12:18:44;9.00;46.00
69189;DHT22;56302;52.322;5.926;2023-04-03T12:29:17;8.60;44.30
69189;DHT22;56302;52.322;5.926;2023-04-03T12:45:57;8.80;44.60
69189;DHT22;56302;52.322;5.926;2023-04-03T12:48:27;8.70;44.50
69189;DHT22;56302;52.322;5.926;2023-04-03T12:50:54;8.60;42.50
69189;DHT22;56302;52.322;5.926;2023-04-03T12:53:33;8.50;45.00
69189;DHT22;56302;52.322;5.926;2023-04-03T12:58:50;8.50;43.60
69189;DHT22;56302;52.322;5.926;2023-04-03T13:01:20;8.40;44.20
69189;DHT22;56302;52.322;5.926;2023-04-03T13:03:53;8.50;44.30
69189;DHT22;56302;52.322;5.926;2023-04-03T13:06:26;8.50;45.10
69189;DHT22;56302;52.322;5.926;2023-04-03T13:08:55;8.40;41.90
69189;DHT22;56302;52.322;5.926;2023-04-03T13:11:23;8.30;42.70
69189;DHT22;56302;52.322;5.926;2023-04-03T13:14:12;8.30;43.40
69189;DHT22;56302;52.322;5.926;2023-04-03T13:16:39;8.40;45.20
69189;DHT22;56302;52.322;5.926;2023-04-03T13:19:14;8.40;44.90
69189;DHT22;56302;52.322;5.926;2023-04-03T13:21:40;8.30;45.60
69189;DHT22;56302;52.322;5.926;2023-04-03T13:24:06;8.30;45.10
69189;DHT22;56302;52.322;5.926;2023-04-03T13:26:33;8.30;44.80
69189;DHT22;56302;52.322;5.926;2023-04-03T13:29:03;8.30;44.80
69189;DHT22;56302;52.322;5.926;2023-04-03T13:31:34;8.50;47.60
69189;DHT22;56302;52.322;5.926;2023-04-03T13:36:46;8.30;46.80
69189;DHT22;56302;52.322;5.926;2023-04-03T13:41:54;8.50;46.00
69189;DHT22;56302;52.322;5.926;2023-04-03T13:51:52;8.40;46.40
69189;DHT22;56302;52.322;5.926;2023-04-03T13:54:30;8.40;45.80
69189;DHT22;56302;52.322;5.926;2023-04-03T13:56:58;8.50;48.20
69189;DHT22;56302;52.322;5.926;2023-04-03T13:59:30;8.40;45.70
69189;DHT22;56302;52.322;5.926;2023-04-03T14:07:15;8.30;45.40
69189;DHT22;56302;52.322;5.926;2023-04-03T14:09:42;8.40;46.30
69189;DHT22;56302;52.322;5.926;2023-04-03T14:12:17;8.30;44.70
69189;DHT22;56302;52.322;5.926;2023-04-03T14:14:43;8.20;44.50
69189;DHT22;56302;52.322;5.926;2023-04-03T14:17:16;8.20;45.40
69189;DHT22;56302;52.322;5.926;2023-04-03T14:19:42;8.20;44.50
69189;DHT22;56302;52.322;5.926;2023-04-03T14:24:42;8.20;45.40
69189;DHT22;56302;52.322;5.926;2023-04-03T14:27:20;8.20;44.70
69189;DHT22;56302;52.322;5.926;2023-04-03T14:29:48;8.20;45.80
69189;DHT22;56302;52.322;5.926;2023-04-03T14:32:15;8.30;45.40
69189;DHT22;56302;52.322;5.926;2023-04-03T14:34:42;8.30;47.00
69189;DHT22;56302;52.322;5.926;2023-04-03T14:37:14;8.30;49.80
69189;DHT22;56302;52.322;5.926;2023-04-03T14:39:40;8.30;48.00
69189;DHT22;56302;52.322;5.926;2023-04-03T14:42:15;8.40;47.60
69189;DHT22;56302;52.322;5.926;2023-04-03T14:44:41;8.40;48.30
69189;DHT22;56302;52.322;5.926;2023-04-03T14:47:15;8.40;46.40
69189;DHT22;56302;52.322;5.926;2023-04-03T14:49:42;8.30;46.30
69189;DHT22;56302;52.322;5.926;2023-04-03T14:52:28;8.30;47.80
69189;DHT22;56302;52.322;5.926;2023-04-03T14:54:54;8.50;49.20
69189;DHT22;56302;52.322;5.926;2023-04-03T14:57:23;8.40;46.80
69189;DHT22;56302;52.322;5.926;2023-04-03T14:59:49;8.30;46.80
69189;DHT22;56302;52.322;5.926;2023-04-03T15:04:51;8.50;46.90
69189;DHT22;56302;52.322;5.926;2023-04-03T15:07:17;8.30;46.00
69189;DHT22;56302;52.322;5.926;2023-04-03T15:09:43;8.20;45.80
69189;DHT22;56302;52.322;5.926;2023-04-03T15:12:09;8.20;46.60
69189;DHT22;56302;52.322;5.926;2023-04-03T15:14:35;8.20;48.10
69189;DHT22;56302;52.322;5.926;2023-04-03T15:17:01;8.30;47.90
69189;DHT22;56302;52.322;5.926;2023-04-03T15:19:27;8.20;45.90
69189;DHT22;56302;52.322;5.926;2023-04-03T15:21:52;8.10;46.90
69189;DHT22;56302;52.322;5.926;2023-04-03T15:24:18;8.10;47.30
69189;DHT22;56302;52.322;5.926;2023-04-03T15:26:43;8.10;47.70
69189;DHT22;56302;52.322;5.926;2023-04-03T15:29:10;8.00;47.30
69189;DHT22;56302;52.322;5.926;2023-04-03T15:31:35;8.10;48.60
69189;DHT22;56302;52.322;5.926;2023-04-03T15:34:01;8.30;48.30
69189;DHT22;56302;52.322;5.926;2023-04-03T15:36:27;8.40;48.40
69189;DHT22;56302;52.322;5.926;2023-04-03T15:38:53;8.20;48.00
69189;DHT22;56302;52.322;5.926;2023-04-03T15:41:18;8.10;47.20
69189;DHT22;56302;52.322;5.926;2023-04-03T15:43:46;8.10;47.30
69189;DHT22;56302;52.322;5.926;2023-04-03T15:46:12;8.10;47.60
69189;DHT22;56302;52.322;5.926;2023-04-03T15:48:38;8.00;47.50
69189;DHT22;56302;52.322;5.926;2023-04-03T15:51:05;8.10;48.30
69189;DHT22;56302;52.322;5.926;2023-04-03T15:53:31;8.10;48.10
69189;DHT22;56302;52.322;5.926;2023-04-03T15:55:57;8.00;47.80
69189;DHT22;56302;52.322;5.926;2023-04-03T15:58:22;7.90;47.00
69189;DHT22;56302;52.322;5.926;2023-04-03T16:00:48;7.80;47.10
69189;DHT22;56302;52.322;5.926;2023-04-03T16:03:18;7.80;46.70
69189;DHT22;56302;52.322;5.926;2023-04-03T16:05:45;7.80;49.10
69189;DHT22;56302;52.322;5.926;2023-04-03T16:08:11;7.80;48.90
69189;DHT22;56302;52.322;5.926;2023-04-03T16:10:37;7.80;48.60
69189;DHT22;56302;52.322;5.926;2023-04-03T16:13:03;7.90;50.30
69189;DHT22;56302;52.322;5.926;2023-04-03T16:15:30;7.90;48.80
69189;DHT22;56302;52.322;5.926;2023-04-03T16:17:57;7.80;48.60
69189;DHT22;56302;52.322;5.926;2023-04-03T16:20:23;7.80;49.10
69189;DHT22;56302;52.322;5.926;2023-04-03T16:22:50;7.70;46.90
69189;DHT22;56302;52.322;5.926;2023-04-03T16:25:15;7.70;48.00
69189;DHT22;56302;52.322;5.926;2023-04-03T16:27:41;7.70;49.10
69189;DHT22;56302;52.322;5.926;2023-04-03T16:30:09;7.70;49.10
69189;DHT22;56302;52.322;5.926;2023-04-03T16:32:36;7.70;48.50
69189;DHT22;56302;52.322;5.926;2023-04-03T16:35:02;7.60;46.30
69189;DHT22;56302;52.322;5.926;2023-04-03T16:37:28;7.60;47.30
69189;DHT22;56302;52.322;5.926;2023-04-03T16:39:53;7.50;48.30
69189;DHT22;56302;52.322;5.926;2023-04-03T16:42:19;7.50;48.60
69189;DHT22;56302;52.322;5.926;2023-04-03T16:44:45;7.50;49.00
69189;DHT22;56302;52.322;5.926;2023-04-03T16:47:10;7.50;50.00
69189;DHT22;56302;52.322;5.926;2023-04-03T16:49:38;7.50;48.80
69189;DHT22;56302;52.322;5.926;2023-04-03T16:52:04;7.50;48.50
69189;DHT22;56302;52.322;5.926;2023-04-03T16:54:31;7.40;49.70
69189;DHT22;56302;52.322;5.926;2023-04-03T16:56:56;7.40;50.40
69189;DHT22;56302;52.322;5.926;2023-04-03T16:59:22;7.30;50.10
69189;DHT22;56302;52.322;5.926;2023-04-03T17:01:48;7.40;49.60
69189;DHT22;56302;52.322;5.926;2023-04-03T17:04:14;7.30;48.20
69189;DHT22;56302;52.322;5.926;2023-04-03T17:06:39;7.30;47.80
69189;DHT22;56302;52.322;5.926;2023-04-03T17:09:06;7.30;48.40
69189;DHT22;56302;52.322;5.926;2023-04-03T17:11:32;7.20;48.50
69189;DHT22;56302;52.322;5.926;2023-04-03T17:13:58;7.20;48.80
69189;DHT22;56302;52.322;5.926;2023-04-03T17:16:24;7.10;49.80
69189;DHT22;56302;52.322;5.926;2023-04-03T17:18:50;7.10;49.30
69189;DHT22;56302;52.322;5.926;2023-04-03T17:21:16;7.10;49.40
69189;DHT22;56302;52.322;5.926;2023-04-03T17:23:44;7.10;50.50
69189;DHT22;56302;52.322;5.926;2023-04-03T17:26:11;6.90;51.00
69189;DHT22;56302;52.322;5.926;2023-04-03T17:28:36;6.90;51.40
69189;DHT22;56302;52.322;5.926;2023-04-03T17:31:03;6.90;50.80
69189;DHT22;56302;52.322;5.926;2023-04-03T17:33:29;6.90;49.70
69189;DHT22;56302;52.322;5.926;2023-04-03T17:35:56;6.90;49.60
69189;DHT22;56302;52.322;5.926;2023-04-03T17:38:22;6.90;49.90
69189;DHT22;56302;52.322;5.926;2023-04-03T17:40:48;6.80;50.70
69189;DHT22;56302;52.322;5.926;2023-04-03T17:43:13;6.80;49.90
69189;DHT22;56302;52.322;5.926;2023-04-03T17:45:40;6.70;50.10
69189;DHT22;56302;52.322;5.926;2023-04-03T17:48:05;6.70;51.00
69189;DHT22;56302;52.322;5.926;2023-04-03T17:50:31;6.60;50.50